Ronald E. Wagenblast — WDE5768 — position and weather

sailwx.info

Track history (hours):
 
Tides and Currents Weather Stations Pressure Air Temp Water Temp Dewpoint Dewpoint Depression Visibility Wind Speed Wind Dir Waves Ship Positions

Ronald E. Wagenblast

Owner: Marquette Transportation Company, LLC, Paducah, KY. More information available from US FCC via Universal Licensing System and Coast Guard Vessel Documentation Center.

Last reported at 2017-Sep-19 17:12 UTC. Time now 2017-Sep-21 04:57 UTC.
Position N 41°08' W 090°59'.

Length 46 m; draft 2.7 m.

Type: Towing. MMSI: 367371390.

Date/timePositionNaut miles runAvg speedWind from/ knotsBaromVisibWave heightAir tempDewpointWater temp
2017-Sep-19 17:12N 41°08' W 090°59'1 4.1
2017-Sep-19 16:54N 41°07' W 090°58'2 3.9
2017-Sep-19 16:30N 41°06' W 090°57'2 3.8
2017-Sep-19 15:53N 41°04' W 090°57'1 3.9
2017-Sep-19 15:30N 41°02' W 090°56'1 3.0
2017-Sep-19 15:00N 41°01' W 090°57'0 0.0
2017-Sep-19 14:30N 41°01' W 090°57'0 0.0
2017-Sep-19 13:59N 41°01' W 090°57'0 0.0
2017-Sep-19 13:30N 41°01' W 090°57'0 0.0
2017-Sep-19 13:00N 41°01' W 090°57'0 0.0
2017-Sep-19 12:30N 41°01' W 090°57'0 0.0
2017-Sep-19 11:58N 41°01' W 090°57'0 0.0
2017-Sep-19 11:29N 41°01' W 090°57'0 0.0
2017-Sep-19 11:00N 41°01' W 090°57'0 0.0
2017-Sep-19 10:29N 41°01' W 090°57'  
2017-Sep-16 14:13N 38°53' W 090°32'1 3.9
2017-Sep-16 14:00N 38°53' W 090°32'2 3.6
2017-Sep-16 13:30N 38°55' W 090°30'2 3.6
2017-Sep-16 13:00N 38°56' W 090°29'2 3.7
2017-Sep-16 12:30N 38°57' W 090°27'2 4.1
2017-Sep-16 12:00N 38°58' W 090°24'2 4.4
2017-Sep-16 11:30N 38°57' W 090°22'2 4.5
2017-Sep-16 11:00N 38°56' W 090°19'  
2017-Sep-14 05:06N 38°55' W 090°17'0 4.2
2017-Sep-14 05:00N 38°55' W 090°17'2 4.0
2017-Sep-14 04:30N 38°56' W 090°20'2 4.2
2017-Sep-14 04:00N 38°57' W 090°22'2 4.2
2017-Sep-14 03:30N 38°58' W 090°25'2 4.1
2017-Sep-14 03:00N 38°57' W 090°27'2 4.2
2017-Sep-14 02:30N 38°56' W 090°29'  
Track history (hours):
 
Tides and Currents Weather Stations Pressure Air Temp Water Temp Dewpoint Dewpoint Depression Visibility Wind Speed Wind Dir Waves Ship Positions

Ronald E. Wagenblast

Owner: Marquette Transportation Company, LLC, Paducah, KY. More information available from US FCC via Universal Licensing System and Coast Guard Vessel Documentation Center.

Last reported at 2017-Sep-19 17:12 UTC. Time now 2017-Sep-21 04:57 UTC.
Position N 41°08' W 090°59'.

Length 46 m; draft 2.7 m.

Type: Towing. MMSI: 367371390.

Date/timePositionNaut miles runAvg speedWind from/ knotsBaromVisibWave heightAir tempDewpointWater temp
2017-Sep-19 17:12N 41°08' W 090°59'1 4.1
2017-Sep-19 16:54N 41°07' W 090°58'2 3.9
2017-Sep-19 16:30N 41°06' W 090°57'2 3.8
2017-Sep-19 15:53N 41°04' W 090°57'1 3.9
2017-Sep-19 15:30N 41°02' W 090°56'1 3.0
2017-Sep-19 15:00N 41°01' W 090°57'0 0.0
2017-Sep-19 14:30N 41°01' W 090°57'0 0.0
2017-Sep-19 13:59N 41°01' W 090°57'0 0.0
2017-Sep-19 13:30N 41°01' W 090°57'0 0.0
2017-Sep-19 13:00N 41°01' W 090°57'0 0.0
2017-Sep-19 12:30N 41°01' W 090°57'0 0.0
2017-Sep-19 11:58N 41°01' W 090°57'0 0.0
2017-Sep-19 11:29N 41°01' W 090°57'0 0.0
2017-Sep-19 11:00N 41°01' W 090°57'0 0.0
2017-Sep-19 10:29N 41°01' W 090°57'  
2017-Sep-16 14:13N 38°53' W 090°32'1 3.9
2017-Sep-16 14:00N 38°53' W 090°32'2 3.6
2017-Sep-16 13:30N 38°55' W 090°30'2 3.6
2017-Sep-16 13:00N 38°56' W 090°29'2 3.7
2017-Sep-16 12:30N 38°57' W 090°27'2 4.1
2017-Sep-16 12:00N 38°58' W 090°24'2 4.4
2017-Sep-16 11:30N 38°57' W 090°22'2 4.5
2017-Sep-16 11:00N 38°56' W 090°19'  
2017-Sep-14 05:06N 38°55' W 090°17'0 4.2
2017-Sep-14 05:00N 38°55' W 090°17'2 4.0
2017-Sep-14 04:30N 38°56' W 090°20'2 4.2
2017-Sep-14 04:00N 38°57' W 090°22'2 4.2
2017-Sep-14 03:30N 38°58' W 090°25'2 4.1
2017-Sep-14 03:00N 38°57' W 090°27'2 4.2
2017-Sep-14 02:30N 38°56' W 090°29'  

Dump ship's entire track history